createdAt,value
2023-02-03T00:00:35.163Z,100742.92
2023-02-03T00:05:58.314Z,100738.48
2023-02-03T00:11:04.243Z,100737.62
2023-02-03T00:16:07.905Z,100736.92
2023-02-03T00:21:11.306Z,100736.84
2023-02-03T00:26:17.467Z,100740.38
2023-02-03T00:31:24.149Z,100742.31
2023-02-03T00:36:27.677Z,100751.66
2023-02-03T00:41:31.821Z,100762.73
2023-02-03T00:46:36.382Z,100762.80
2023-02-03T00:51:39.791Z,100771.96
2023-02-03T00:56:52.658Z,100773.13
2023-02-03T01:01:59.177Z,100776.52
2023-02-03T01:07:02.343Z,100775.00
2023-02-03T01:12:06.113Z,100775.92
2023-02-03T01:17:10.224Z,100777.29
2023-02-03T01:22:13.636Z,100787.00
2023-02-03T01:27:16.902Z,100783.74
2023-02-03T01:32:20.124Z,100777.52
2023-02-03T01:37:23.298Z,100777.93
2023-02-03T01:42:26.569Z,100771.09
2023-02-03T01:47:50.506Z,100770.73
2023-02-03T01:52:59.163Z,100763.27
2023-02-03T01:58:09.053Z,100759.31
2023-02-03T02:03:13.779Z,100763.06
2023-02-03T02:08:20.138Z,100762.79
2023-02-03T02:13:25.002Z,100758.74
2023-02-03T02:19:00.861Z,100751.85
2023-02-03T02:24:50.293Z,100751.64
2023-02-03T02:30:15.643Z,100746.29
2023-02-03T02:35:27.391Z,100752.96
2023-02-03T02:40:50.877Z,100743.43
2023-02-03T02:46:00.538Z,100729.27
2023-02-03T02:51:07.254Z,100727.34
2023-02-03T02:56:15.665Z,100731.48
2023-02-03T03:01:19.684Z,100724.61
2023-02-03T03:06:34.082Z,100721.94
2023-02-03T03:12:02.450Z,100736.63
2023-02-03T03:17:30.442Z,100731.73
2023-02-03T03:22:51.710Z,100738.08
2023-02-03T03:28:03.696Z,100744.27
2023-02-03T03:33:16.536Z,100740.23
2023-02-03T03:38:25.215Z,100730.58
2023-02-03T03:43:38.311Z,100723.17
2023-02-03T03:48:56.722Z,100722.69
2023-02-03T03:54:09.522Z,100720.27
2023-02-03T03:59:17.045Z,100725.29
2023-02-03T04:04:24.508Z,100725.13
2023-02-03T04:09:27.801Z,100727.02
2023-02-03T04:14:33.786Z,100724.13
2023-02-03T04:19:37.286Z,100726.80
2023-02-03T04:24:42.191Z,100727.81
2023-02-03T04:29:47.587Z,100725.33
2023-02-03T04:34:50.749Z,100729.17
2023-02-03T04:39:55.691Z,100731.15
2023-02-03T04:44:58.929Z,100725.74
2023-02-03T04:50:02.483Z,100721.02
2023-02-03T04:55:06.028Z,100717.27
2023-02-03T05:00:10.848Z,100709.20
2023-02-03T05:05:13.944Z,100700.55
2023-02-03T05:10:17.130Z,100688.43
2023-02-03T05:15:20.276Z,100684.63
2023-02-03T05:20:23.501Z,100683.56
2023-02-03T05:25:26.865Z,100683.73
2023-02-03T05:30:30.293Z,100681.29
2023-02-03T05:35:33.851Z,100681.57
2023-02-03T05:40:58.576Z,100679.59
2023-02-03T05:46:25.996Z,100673.95
2023-02-03T05:51:29.246Z,100665.41
2023-02-03T05:56:32.433Z,100666.81
2023-02-03T06:01:36.095Z,100667.67
2023-02-03T06:06:39.223Z,100667.52
2023-02-03T06:12:07.420Z,100662.20
2023-02-03T06:17:10.649Z,100656.80
2023-02-03T06:22:13.838Z,100652.86
2023-02-03T06:27:17.337Z,100645.77
2023-02-03T06:32:20.575Z,100643.56
2023-02-03T06:37:24.863Z,100635.42
2023-02-03T06:42:31.632Z,100628.58
2023-02-03T06:47:35.392Z,100624.38
2023-02-03T06:52:38.674Z,100609.95
2023-02-03T06:57:46.923Z,100599.48
2023-02-03T07:02:58.440Z,100583.95
2023-02-03T07:08:02.912Z,100577.52
2023-02-03T07:13:06.767Z,100569.07
2023-02-03T07:18:09.973Z,100556.36
2023-02-03T07:24:04.942Z,100546.01
2023-02-03T07:29:08.305Z,100542.00
2023-02-03T07:34:34.301Z,100543.13
2023-02-03T07:39:40.231Z,100536.41
2023-02-03T07:44:43.557Z,100530.22
2023-02-03T07:49:46.769Z,100510.60
2023-02-03T07:54:50.209Z,100495.70
2023-02-03T07:59:58.629Z,100485.75
2023-02-03T08:05:27.551Z,100486.30
2023-02-03T08:10:30.976Z,100474.84
2023-02-03T08:15:34.563Z,100462.69
2023-02-03T08:20:49.659Z,100458.59
2023-02-03T08:25:53.110Z,100454.60
2023-02-03T08:30:57.853Z,100452.39
2023-02-03T08:36:01.221Z,100447.40
2023-02-03T08:41:13.244Z,100435.79
2023-02-03T08:46:16.384Z,100420.75
2023-02-03T08:51:19.669Z,100415.29
2023-02-03T08:56:22.793Z,100413.43
2023-02-03T09:01:26.356Z,100404.05
2023-02-03T09:06:30.989Z,100395.40
2023-02-03T09:11:34.454Z,100387.80
2023-02-03T09:16:38.025Z,100376.77
2023-02-03T09:21:46.979Z,100372.69
2023-02-03T09:26:51.551Z,100364.64
2023-02-03T09:31:55.124Z,100346.61
2023-02-03T09:36:58.331Z,100329.41
2023-02-03T09:42:09.247Z,100319.27
2023-02-03T09:47:27.216Z,100301.40
2023-02-03T09:52:37.423Z,100290.27
2023-02-03T09:57:56.110Z,100281.56
2023-02-03T10:03:07.817Z,100257.86
2023-02-03T10:08:22.391Z,100248.80
2023-02-03T10:13:51.391Z,100238.52
2023-02-03T10:19:20.260Z,100226.99
2023-02-03T10:24:40.786Z,100212.86
2023-02-03T10:29:44.371Z,100200.48
2023-02-03T10:34:49.518Z,100183.45
2023-02-03T10:39:54.505Z,100172.46
2023-02-03T10:45:00.062Z,100158.36
2023-02-03T10:50:15.795Z,100134.63
2023-02-03T10:55:23.231Z,100122.60
2023-02-03T11:00:53.773Z,100104.53
2023-02-03T11:06:13.670Z,100084.23
2023-02-03T11:11:42.070Z,100052.73
2023-02-03T11:16:47.455Z,100032.09
2023-02-03T11:21:56.899Z,100010.43
2023-02-03T11:27:37.410Z,99994.61
2023-02-03T11:32:52.861Z,99979.31
2023-02-03T11:38:01.216Z,99962.29
2023-02-03T11:43:15.947Z,99944.23
2023-02-03T11:48:35.778Z,99928.75
2023-02-03T11:53:57.351Z,99922.05
2023-02-03T11:59:50.468Z,99907.77
2023-02-03T12:05:16.793Z,99895.74
2023-02-03T12:10:26.133Z,99888.69
2023-02-03T12:15:52.587Z,99880.44
2023-02-03T12:21:29.619Z,99866.00
2023-02-03T12:27:01.597Z,99850.70
2023-02-03T12:32:07.905Z,99843.45
2023-02-03T12:37:19.239Z,99827.98
2023-02-03T12:42:36.784Z,99810.96
2023-02-03T12:48:36.840Z,99796.38
2023-02-03T12:54:02.630Z,99766.64
2023-02-03T12:59:22.667Z,99745.34
2023-02-03T13:04:57.358Z,99725.11
2023-02-03T13:10:19.385Z,99706.23
2023-02-03T13:15:25.671Z,99690.42
2023-02-03T13:20:41.093Z,99674.27
2023-02-03T13:26:36.914Z,99646.14
2023-02-03T13:32:07.698Z,99624.38
2023-02-03T13:37:33.176Z,99600.21
2023-02-03T13:42:41.581Z,99584.60
2023-02-03T13:47:52.305Z,99574.13
2023-02-03T13:53:02.908Z,99561.42
2023-02-03T13:58:19.179Z,99556.63
2023-02-03T14:03:25.161Z,99547.05
2023-02-03T14:08:48.724Z,99527.17
2023-02-03T14:13:51.917Z,99519.13
2023-02-03T14:18:57.179Z,99495.12
2023-02-03T14:24:07.528Z,99482.59
2023-02-03T14:29:25.882Z,99465.97
2023-02-03T14:34:39.474Z,99458.07
2023-02-03T14:40:11.642Z,99453.63
2023-02-03T14:45:52.281Z,99440.77
2023-02-03T14:52:01.633Z,99426.91
2023-02-03T14:57:31.210Z,99413.69
2023-02-03T15:02:35.306Z,99407.52
2023-02-03T15:07:46.630Z,99401.67
2023-02-03T15:12:52.782Z,99390.55
2023-02-03T15:18:01.137Z,99380.28
2023-02-03T15:23:24.909Z,99370.38
2023-02-03T15:28:31.733Z,99357.86
2023-02-03T15:33:57.156Z,99349.27
2023-02-03T15:39:17.270Z,99343.10
2023-02-03T15:44:42.153Z,99336.08
2023-02-03T15:50:00.448Z,99337.98
2023-02-03T15:55:17.830Z,99330.45
2023-02-03T16:00:33.666Z,99325.98
2023-02-03T16:05:39.914Z,99317.39
2023-02-03T16:10:49.138Z,99314.44
2023-02-03T16:16:18.411Z,99304.32
2023-02-03T16:21:52.410Z,99300.06
2023-02-03T16:26:55.757Z,99291.20
2023-02-03T16:32:18.044Z,99287.77
2023-02-03T16:37:44.697Z,99284.68
2023-02-03T16:43:08.228Z,99279.02
2023-02-03T16:48:31.649Z,99270.23
2023-02-03T16:53:56.344Z,99266.46
2023-02-03T16:58:59.491Z,99264.92
2023-02-03T17:04:02.840Z,99260.48
2023-02-03T17:09:07.284Z,99266.86
2023-02-03T17:14:13.156Z,99267.36
2023-02-03T17:19:16.233Z,99258.40
2023-02-03T17:24:22.615Z,99261.64
2023-02-03T17:29:25.988Z,99266.42
2023-02-03T17:34:29.282Z,99267.83
2023-02-03T17:55:37.578Z,99267.79
2023-02-03T18:00:40.802Z,99268.45
2023-02-03T18:05:53.469Z,99278.26
2023-02-03T18:10:56.764Z,99279.64
2023-02-03T18:16:00.152Z,99287.88
2023-02-03T18:21:07.992Z,99297.30
2023-02-03T18:26:13.255Z,99305.68
2023-02-03T18:31:17.787Z,99306.85
2023-02-03T18:36:22.062Z,99312.67
2023-02-03T18:41:25.978Z,99317.52
2023-02-03T18:46:31.761Z,99318.71
2023-02-03T18:51:35.152Z,99321.27
2023-02-03T18:56:38.944Z,99324.19
2023-02-03T19:01:46.608Z,99330.86
2023-02-03T19:06:51.612Z,99337.73
2023-02-03T19:11:55.187Z,99334.50
2023-02-03T19:16:58.962Z,99346.34
2023-02-03T19:22:02.374Z,99348.55
2023-02-03T19:27:05.898Z,99351.96
2023-02-03T19:32:09.933Z,99356.42
2023-02-03T19:37:13.548Z,99355.23
2023-02-03T19:42:17.045Z,99354.05
2023-02-03T19:47:20.797Z,99347.90
2023-02-03T19:52:24.370Z,99358.00
2023-02-03T19:57:27.525Z,99362.77
2023-02-03T20:02:31.204Z,99364.15
2023-02-03T20:07:34.626Z,99369.09
2023-02-03T20:12:58.914Z,99379.08
2023-02-03T20:18:02.314Z,99386.27
2023-02-03T20:29:10.379Z,99391.75
2023-02-03T20:34:13.619Z,99402.20
2023-02-03T20:39:20.030Z,99410.77
2023-02-03T20:44:23.352Z,99423.80
2023-02-03T20:49:26.709Z,99406.84
2023-02-03T20:54:30.295Z,99394.48
2023-02-03T20:59:33.490Z,99406.99
2023-02-03T21:04:55.474Z,99427.75
2023-02-03T21:10:00.297Z,99431.35
2023-02-03T21:15:18.608Z,99445.60
2023-02-03T21:20:29.829Z,99473.73
2023-02-03T21:25:34.313Z,99479.38
2023-02-03T21:30:37.687Z,99471.65
2023-02-03T21:35:41.092Z,99481.42
2023-02-03T21:40:44.363Z,99497.72
2023-02-03T21:45:49.422Z,99502.86
2023-02-03T21:50:54.511Z,99498.75
2023-02-03T21:56:14.304Z,99501.66
2023-02-03T22:01:20.219Z,99506.13
2023-02-03T22:06:56.760Z,99508.52
2023-02-03T22:12:01.297Z,99516.06
2023-02-03T22:17:04.754Z,99526.88
2023-02-03T22:22:08.065Z,99545.23
2023-02-03T22:27:11.671Z,99552.77
2023-02-03T22:32:15.010Z,99560.30
2023-02-03T22:37:18.260Z,99559.11
2023-02-03T22:42:24.270Z,99559.11
2023-02-03T22:47:27.413Z,99570.77
2023-02-03T22:52:44.552Z,99569.71
2023-02-03T22:57:50.061Z,99571.09
2023-02-03T23:02:53.552Z,99578.63
2023-02-03T23:08:07.304Z,99587.55
2023-02-03T23:13:23.331Z,99603.98
2023-02-03T23:18:27.062Z,99606.17
2023-02-03T23:23:30.404Z,99615.73
2023-02-03T23:28:33.717Z,99632.88
2023-02-03T23:33:37.408Z,99655.31
2023-02-03T23:38:44.095Z,99667.48
2023-02-03T23:43:53.997Z,99676.71
2023-02-03T23:49:07.552Z,99683.20
2023-02-03T23:54:11.188Z,99696.19
2023-02-03T23:59:14.614Z,99698.57
